Ryoho Maru No.2 — JD2964 — position and weather

sailwx.info

Track history (hours):
 
Tides and Currents Weather Stations Pressure Air Temp Water Temp Dewpoint Dewpoint Depression Visibility Wind Speed Wind Dir Waves Ship Positions

Ryoho Maru No.2

Last reported at 2015-Jan-23 01:22 UTC. Time now 2015-Jan-25 12:20 UTC.
Position N 34°56' E 140°02'.

Length 57 m; draft 4 m.

Type: Tanker. MMSI: 431001062.

Date/timePositionNaut miles runAvg speedWind from/ knotsBaromVisibWave heightAir tempDewpointWater temp
2015-Jan-23 01:22N 34°56' E 140°02'10 9.0
2015-Jan-23 00:13N 34°52' E 139°50'6 9.6
2015-Jan-22 23:33N 34°57' E 139°45'10 9.9
2015-Jan-22 22:33N 35°06' E 139°46'10 9.9
2015-Jan-22 21:33N 35°16' E 139°46'9 8.8
2015-Jan-22 20:33N 35°25' E 139°44'10 9.6
2015-Jan-22 19:33N 35°30' E 139°54'5 2.0
2015-Jan-22 17:08N 35°29' E 139°60'0 0.0
2015-Jan-22 16:20N 35°29' E 139°60'0 0.0
2015-Jan-22 10:26N 35°29' E 139°60'0 0.3
2015-Jan-22 09:34N 35°29' E 140°00'1 0.1
2015-Jan-22 04:04N 35°29' E 140°01'5 9.9
2015-Jan-22 03:34N 35°29' E 139°55'8 7.8
2015-Jan-22 02:33N 35°32' E 139°45'0 0.0
2015-Jan-22 01:32N 35°32' E 139°45'0 0.0
2015-Jan-22 00:32N 35°32' E 139°45'1 0.6
2015-Jan-21 23:33N 35°31' E 139°46'2 2.8
2015-Jan-21 22:50N 35°29' E 139°47'0 0.0
2015-Jan-21 22:44N 35°29' E 139°47'0 0.0
2015-Jan-21 22:32N 35°29' E 139°47'0 0.0
2015-Jan-21 21:32N 35°29' E 139°47'0 0.0
2015-Jan-21 20:29N 35°29' E 139°47'0 0.0
2015-Jan-21 19:32N 35°29' E 139°47'0 0.1
2015-Jan-21 18:32N 35°29' E 139°47'0 0.0
2015-Jan-21 17:32N 35°29' E 139°47'0 0.0
2015-Jan-21 16:32N 35°29' E 139°47'0 0.0
2015-Jan-21 15:32N 35°29' E 139°47'0 0.0
2015-Jan-21 14:32N 35°29' E 139°47'0 0.0
2015-Jan-21 13:32N 35°29' E 139°47'0 0.0
2015-Jan-21 12:32N 35°29' E 139°47'0 0.0
2015-Jan-21 11:32N 35°29' E 139°47'0 0.0
2015-Jan-21 10:26N 35°29' E 139°47'0 0.0
2015-Jan-21 09:32N 35°29' E 139°47'0 0.0
2015-Jan-21 08:32N 35°29' E 139°47'0 0.0
2015-Jan-21 07:32N 35°29' E 139°47'0 0.0
2015-Jan-21 06:32N 35°29' E 139°47'0 0.0
2015-Jan-21 05:29N 35°29' E 139°47'0 0.0
2015-Jan-21 04:32N 35°29' E 139°47'0 0.0
2015-Jan-21 03:26N 35°29' E 139°47'0 0.0
2015-Jan-21 02:32N 35°29' E 139°47'0 0.0
2015-Jan-21 01:32N 35°29' E 139°47'0 0.0
2015-Jan-21 00:32N 35°29' E 139°47'0 0.0
2015-Jan-20 23:32N 35°29' E 139°47'0 0.0
2015-Jan-20 22:32N 35°29' E 139°47'0 0.0
2015-Jan-20 21:32N 35°29' E 139°47'0 0.0
2015-Jan-20 20:32N 35°29' E 139°47'0 0.0
2015-Jan-20 19:32N 35°29' E 139°47'0 0.0
2015-Jan-20 18:32N 35°29' E 139°47'0 0.0
2015-Jan-20 17:32N 35°29' E 139°47'0 0.0
2015-Jan-20 16:29N 35°29' E 139°47'0 0.1
2015-Jan-20 15:32N 35°29' E 139°47'0 0.0
2015-Jan-20 14:32N 35°29' E 139°47'0 0.0
2015-Jan-20 13:32N 35°29' E 139°47'0 0.0
2015-Jan-20 12:32N 35°29' E 139°47'0 0.0
2015-Jan-20 11:32N 35°29' E 139°47'0 0.0
2015-Jan-20 10:32N 35°29' E 139°47'0 0.0
2015-Jan-20 09:32N 35°29' E 139°47'0 0.0
2015-Jan-20 08:26N 35°29' E 139°47'0 0.1
2015-Jan-20 07:32N 35°29' E 139°47'0 0.0
2015-Jan-20 06:32N 35°29' E 139°47'0 0.0
2015-Jan-20 05:32N 35°29' E 139°47'0 0.0
2015-Jan-20 04:26N 35°29' E 139°47'0 0.0
2015-Jan-20 03:26N 35°29' E 139°47'0 0.0
2015-Jan-20 02:20N 35°29' E 139°47'0 0.0
2015-Jan-20 01:20N 35°29' E 139°47'0 0.0
2015-Jan-20 00:32N 35°29' E 139°47'6 6.6
2015-Jan-19 23:33N 35°23' E 139°46'9 8.7
2015-Jan-19 22:33N 35°14' E 139°47'1010.2
2015-Jan-19 21:33N 35°04' E 139°45'1010.2
2015-Jan-19 20:32N 34°54' E 139°47'1010.0
2015-Jan-19 19:30N 34°54' E 139°59'  
2015-Jan-13 09:17N 35°05' E 140°17'27 9.9
2015-Jan-13 06:33N 34°55' E 139°46'10 9.8
2015-Jan-13 05:33N 35°05' E 139°45'1110.6
2015-Jan-13 04:33N 35°15' E 139°46'10 9.8
2015-Jan-13 03:34N 35°25' E 139°44'1210.4
2015-Jan-13 02:24N 35°30' E 139°57'  
Track history (hours):
 
Tides and Currents Weather Stations Pressure Air Temp Water Temp Dewpoint Dewpoint Depression Visibility Wind Speed Wind Dir Waves Ship Positions

Ryoho Maru No.2

Last reported at 2015-Jan-23 01:22 UTC. Time now 2015-Jan-25 12:20 UTC.
Position N 34°56' E 140°02'.

Length 57 m; draft 4 m.

Type: Tanker. MMSI: 431001062.

Date/timePositionNaut miles runAvg speedWind from/ knotsBaromVisibWave heightAir tempDewpointWater temp
2015-Jan-23 01:22N 34°56' E 140°02'10 9.0
2015-Jan-23 00:13N 34°52' E 139°50'6 9.6
2015-Jan-22 23:33N 34°57' E 139°45'10 9.9
2015-Jan-22 22:33N 35°06' E 139°46'10 9.9
2015-Jan-22 21:33N 35°16' E 139°46'9 8.8
2015-Jan-22 20:33N 35°25' E 139°44'10 9.6
2015-Jan-22 19:33N 35°30' E 139°54'5 2.0
2015-Jan-22 17:08N 35°29' E 139°60'0 0.0
2015-Jan-22 16:20N 35°29' E 139°60'0 0.0
2015-Jan-22 10:26N 35°29' E 139°60'0 0.3
2015-Jan-22 09:34N 35°29' E 140°00'1 0.1
2015-Jan-22 04:04N 35°29' E 140°01'5 9.9
2015-Jan-22 03:34N 35°29' E 139°55'8 7.8
2015-Jan-22 02:33N 35°32' E 139°45'0 0.0
2015-Jan-22 01:32N 35°32' E 139°45'0 0.0
2015-Jan-22 00:32N 35°32' E 139°45'1 0.6
2015-Jan-21 23:33N 35°31' E 139°46'2 2.8
2015-Jan-21 22:50N 35°29' E 139°47'0 0.0
2015-Jan-21 22:44N 35°29' E 139°47'0 0.0
2015-Jan-21 22:32N 35°29' E 139°47'0 0.0
2015-Jan-21 21:32N 35°29' E 139°47'0 0.0
2015-Jan-21 20:29N 35°29' E 139°47'0 0.0
2015-Jan-21 19:32N 35°29' E 139°47'0 0.1
2015-Jan-21 18:32N 35°29' E 139°47'0 0.0
2015-Jan-21 17:32N 35°29' E 139°47'0 0.0
2015-Jan-21 16:32N 35°29' E 139°47'0 0.0
2015-Jan-21 15:32N 35°29' E 139°47'0 0.0
2015-Jan-21 14:32N 35°29' E 139°47'0 0.0
2015-Jan-21 13:32N 35°29' E 139°47'0 0.0
2015-Jan-21 12:32N 35°29' E 139°47'0 0.0
2015-Jan-21 11:32N 35°29' E 139°47'0 0.0
2015-Jan-21 10:26N 35°29' E 139°47'0 0.0
2015-Jan-21 09:32N 35°29' E 139°47'0 0.0
2015-Jan-21 08:32N 35°29' E 139°47'0 0.0
2015-Jan-21 07:32N 35°29' E 139°47'0 0.0
2015-Jan-21 06:32N 35°29' E 139°47'0 0.0
2015-Jan-21 05:29N 35°29' E 139°47'0 0.0
2015-Jan-21 04:32N 35°29' E 139°47'0 0.0
2015-Jan-21 03:26N 35°29' E 139°47'0 0.0
2015-Jan-21 02:32N 35°29' E 139°47'0 0.0
2015-Jan-21 01:32N 35°29' E 139°47'0 0.0
2015-Jan-21 00:32N 35°29' E 139°47'0 0.0
2015-Jan-20 23:32N 35°29' E 139°47'0 0.0
2015-Jan-20 22:32N 35°29' E 139°47'0 0.0
2015-Jan-20 21:32N 35°29' E 139°47'0 0.0
2015-Jan-20 20:32N 35°29' E 139°47'0 0.0
2015-Jan-20 19:32N 35°29' E 139°47'0 0.0
2015-Jan-20 18:32N 35°29' E 139°47'0 0.0
2015-Jan-20 17:32N 35°29' E 139°47'0 0.0
2015-Jan-20 16:29N 35°29' E 139°47'0 0.1
2015-Jan-20 15:32N 35°29' E 139°47'0 0.0
2015-Jan-20 14:32N 35°29' E 139°47'0 0.0
2015-Jan-20 13:32N 35°29' E 139°47'0 0.0
2015-Jan-20 12:32N 35°29' E 139°47'0 0.0
2015-Jan-20 11:32N 35°29' E 139°47'0 0.0
2015-Jan-20 10:32N 35°29' E 139°47'0 0.0
2015-Jan-20 09:32N 35°29' E 139°47'0 0.0
2015-Jan-20 08:26N 35°29' E 139°47'0 0.1
2015-Jan-20 07:32N 35°29' E 139°47'0 0.0
2015-Jan-20 06:32N 35°29' E 139°47'0 0.0
2015-Jan-20 05:32N 35°29' E 139°47'0 0.0
2015-Jan-20 04:26N 35°29' E 139°47'0 0.0
2015-Jan-20 03:26N 35°29' E 139°47'0 0.0
2015-Jan-20 02:20N 35°29' E 139°47'0 0.0
2015-Jan-20 01:20N 35°29' E 139°47'0 0.0
2015-Jan-20 00:32N 35°29' E 139°47'6 6.6
2015-Jan-19 23:33N 35°23' E 139°46'9 8.7
2015-Jan-19 22:33N 35°14' E 139°47'1010.2
2015-Jan-19 21:33N 35°04' E 139°45'1010.2
2015-Jan-19 20:32N 34°54' E 139°47'1010.0
2015-Jan-19 19:30N 34°54' E 139°59'  
2015-Jan-13 09:17N 35°05' E 140°17'27 9.9
2015-Jan-13 06:33N 34°55' E 139°46'10 9.8
2015-Jan-13 05:33N 35°05' E 139°45'1110.6
2015-Jan-13 04:33N 35°15' E 139°46'10 9.8
2015-Jan-13 03:34N 35°25' E 139°44'1210.4
2015-Jan-13 02:24N 35°30' E 139°57'  

Dump ship's entire track history